sensor_id;sensor_type;location;lat;lon;timestamp;P1;durP1;ratioP1;P2;durP2;ratioP2
2035;SDS011;23642;42.658;23.350;2023-04-03T00:02:07;103.80;;;97.30;;
2035;SDS011;23642;42.658;23.350;2023-04-03T00:04:34;104.43;;;97.90;;
2035;SDS011;23642;42.658;23.350;2023-04-03T00:07:00;101.30;;;95.20;;
2035;SDS011;23642;42.658;23.350;2023-04-03T00:09:27;102.00;;;95.43;;
2035;SDS011;23642;42.658;23.350;2023-04-03T00:11:54;101.83;;;95.80;;
2035;SDS011;23642;42.658;23.350;2023-04-03T00:14:21;102.00;;;95.90;;
2035;SDS011;23642;42.658;23.350;2023-04-03T00:16:49;102.37;;;96.27;;
2035;SDS011;23642;42.658;23.350;2023-04-03T00:19:18;100.37;;;94.47;;
2035;SDS011;23642;42.658;23.350;2023-04-03T00:21:47;102.13;;;96.10;;
2035;SDS011;23642;42.658;23.350;2023-04-03T00:24:14;101.07;;;94.97;;
2035;SDS011;23642;42.658;23.350;2023-04-03T00:26:41;101.97;;;96.03;;
2035;SDS011;23642;42.658;23.350;2023-04-03T00:29:08;102.30;;;96.00;;
2035;SDS011;23642;42.658;23.350;2023-04-03T00:31:35;100.50;;;94.40;;
2035;SDS011;23642;42.658;23.350;2023-04-03T00:34:02;100.03;;;93.87;;
2035;SDS011;23642;42.658;23.350;2023-04-03T00:36:30;99.47;;;93.50;;
2035;SDS011;23642;42.658;23.350;2023-04-03T00:38:57;101.60;;;95.10;;
2035;SDS011;23642;42.658;23.350;2023-04-03T00:41:24;101.03;;;94.90;;
2035;SDS011;23642;42.658;23.350;2023-04-03T00:43:52;99.27;;;93.37;;
2035;SDS011;23642;42.658;23.350;2023-04-03T00:46:19;99.30;;;93.40;;
2035;SDS011;23642;42.658;23.350;2023-04-03T00:48:47;97.07;;;91.37;;
2035;SDS011;23642;42.658;23.350;2023-04-03T00:51:16;98.20;;;92.40;;
2035;SDS011;23642;42.658;23.350;2023-04-03T00:53:47;94.30;;;88.60;;
2035;SDS011;23642;42.658;23.350;2023-04-03T00:56:19;99.00;;;93.10;;
2035;SDS011;23642;42.658;23.350;2023-04-03T00:58:51;95.50;;;89.70;;
2035;SDS011;23642;42.658;23.350;2023-04-03T01:01:23;95.83;;;90.07;;
2035;SDS011;23642;42.658;23.350;2023-04-03T01:03:52;98.60;;;92.80;;
2035;SDS011;23642;42.658;23.350;2023-04-03T01:06:20;96.10;;;90.30;;
2035;SDS011;23642;42.658;23.350;2023-04-03T01:08:52;97.97;;;92.10;;
2035;SDS011;23642;42.658;23.350;2023-04-03T01:11:20;98.70;;;92.50;;
2035;SDS011;23642;42.658;23.350;2023-04-03T01:13:47;95.30;;;89.10;;
2035;SDS011;23642;42.658;23.350;2023-04-03T01:16:15;101.10;;;94.80;;
2035;SDS011;23642;42.658;23.350;2023-04-03T01:18:42;99.50;;;92.90;;
2035;SDS011;23642;42.658;23.350;2023-04-03T01:24:18;99.10;;;93.10;;
2035;SDS011;23642;42.658;23.350;2023-04-03T01:26:54;102.13;;;95.63;;
2035;SDS011;23642;42.658;23.350;2023-04-03T01:29:21;97.27;;;91.20;;
2035;SDS011;23642;42.658;23.350;2023-04-03T01:31:50;99.07;;;92.97;;
2035;SDS011;23642;42.658;23.350;2023-04-03T01:34:18;99.20;;;92.80;;
2035;SDS011;23642;42.658;23.350;2023-04-03T01:36:45;97.10;;;90.80;;
2035;SDS011;23642;42.658;23.350;2023-04-03T01:39:12;96.63;;;90.60;;
2035;SDS011;23642;42.658;23.350;2023-04-03T01:41:39;98.17;;;92.10;;
2035;SDS011;23642;42.658;23.350;2023-04-03T01:44:06;93.90;;;87.93;;
2035;SDS011;23642;42.658;23.350;2023-04-03T01:46:33;96.77;;;90.60;;
2035;SDS011;23642;42.658;23.350;2023-04-03T01:49:02;96.40;;;90.47;;
2035;SDS011;23642;42.658;23.350;2023-04-03T01:51:29;96.97;;;91.07;;
2035;SDS011;23642;42.658;23.350;2023-04-03T01:53:56;99.10;;;92.80;;
2035;SDS011;23642;42.658;23.350;2023-04-03T01:56:23;97.10;;;91.20;;
2035;SDS011;23642;42.658;23.350;2023-04-03T01:58:50;95.47;;;89.57;;
2035;SDS011;23642;42.658;23.350;2023-04-03T02:01:17;94.70;;;89.00;;
2035;SDS011;23642;42.658;23.350;2023-04-03T02:03:44;93.93;;;88.03;;
2035;SDS011;23642;42.658;23.350;2023-04-03T02:06:12;96.83;;;90.80;;
2035;SDS011;23642;42.658;23.350;2023-04-03T02:08:39;96.80;;;90.67;;
2035;SDS011;23642;42.658;23.350;2023-04-03T02:11:06;97.93;;;91.53;;
2035;SDS011;23642;42.658;23.350;2023-04-03T02:13:33;93.07;;;87.17;;
2035;SDS011;23642;42.658;23.350;2023-04-03T02:16:05;92.77;;;86.70;;
2035;SDS011;23642;42.658;23.350;2023-04-03T02:18:33;93.93;;;87.80;;
2035;SDS011;23642;42.658;23.350;2023-04-03T02:21:00;96.70;;;90.70;;
2035;SDS011;23642;42.658;23.350;2023-04-03T02:23:29;97.33;;;91.10;;
2035;SDS011;23642;42.658;23.350;2023-04-03T02:26:02;99.20;;;93.03;;
2035;SDS011;23642;42.658;23.350;2023-04-03T02:28:31;101.07;;;94.37;;
2035;SDS011;23642;42.658;23.350;2023-04-03T02:30:58;99.40;;;92.67;;
2035;SDS011;23642;42.658;23.350;2023-04-03T02:33:25;97.77;;;91.50;;
2035;SDS011;23642;42.658;23.350;2023-04-03T02:35:52;98.03;;;91.53;;
2035;SDS011;23642;42.658;23.350;2023-04-03T02:38:21;100.47;;;93.47;;
2035;SDS011;23642;42.658;23.350;2023-04-03T02:40:50;97.63;;;90.87;;
2035;SDS011;23642;42.658;23.350;2023-04-03T02:43:17;95.13;;;88.90;;
2035;SDS011;23642;42.658;23.350;2023-04-03T02:45:44;95.57;;;89.07;;
2035;SDS011;23642;42.658;23.350;2023-04-03T02:48:11;95.40;;;89.30;;
2035;SDS011;23642;42.658;23.350;2023-04-03T02:50:39;95.33;;;89.33;;
2035;SDS011;23642;42.658;23.350;2023-04-03T02:53:06;95.83;;;89.43;;
2035;SDS011;23642;42.658;23.350;2023-04-03T02:55:33;97.33;;;90.93;;
2035;SDS011;23642;42.658;23.350;2023-04-03T02:58:02;95.77;;;89.37;;
2035;SDS011;23642;42.658;23.350;2023-04-03T03:00:29;96.30;;;89.80;;
2035;SDS011;23642;42.658;23.350;2023-04-03T03:02:56;94.87;;;88.27;;
2035;SDS011;23642;42.658;23.350;2023-04-03T03:05:23;93.60;;;86.73;;
2035;SDS011;23642;42.658;23.350;2023-04-03T03:07:50;95.10;;;88.80;;
2035;SDS011;23642;42.658;23.350;2023-04-03T03:10:17;91.33;;;85.40;;
2035;SDS011;23642;42.658;23.350;2023-04-03T03:12:44;95.13;;;88.87;;
2035;SDS011;23642;42.658;23.350;2023-04-03T03:15:12;91.83;;;85.27;;
2035;SDS011;23642;42.658;23.350;2023-04-03T03:17:40;95.13;;;88.30;;
2035;SDS011;23642;42.658;23.350;2023-04-03T03:20:08;92.27;;;86.43;;
2035;SDS011;23642;42.658;23.350;2023-04-03T03:22:36;94.10;;;87.90;;
2035;SDS011;23642;42.658;23.350;2023-04-03T03:25:03;93.77;;;87.23;;
2035;SDS011;23642;42.658;23.350;2023-04-03T03:27:31;91.47;;;85.13;;
2035;SDS011;23642;42.658;23.350;2023-04-03T03:29:58;90.27;;;84.47;;
2035;SDS011;23642;42.658;23.350;2023-04-03T03:32:26;89.37;;;83.27;;
2035;SDS011;23642;42.658;23.350;2023-04-03T03:34:53;88.77;;;82.87;;
2035;SDS011;23642;42.658;23.350;2023-04-03T03:37:19;89.20;;;83.40;;
2035;SDS011;23642;42.658;23.350;2023-04-03T03:39:46;89.47;;;83.00;;
2035;SDS011;23642;42.658;23.350;2023-04-03T03:42:13;89.63;;;83.30;;
2035;SDS011;23642;42.658;23.350;2023-04-03T03:44:40;87.67;;;81.97;;
2035;SDS011;23642;42.658;23.350;2023-04-03T03:47:07;88.23;;;82.43;;
2035;SDS011;23642;42.658;23.350;2023-04-03T03:49:37;86.57;;;80.80;;
2035;SDS011;23642;42.658;23.350;2023-04-03T03:52:04;84.80;;;79.20;;
2035;SDS011;23642;42.658;23.350;2023-04-03T03:54:31;86.80;;;81.00;;
2035;SDS011;23642;42.658;23.350;2023-04-03T03:56:58;88.77;;;82.60;;
2035;SDS011;23642;42.658;23.350;2023-04-03T03:59:25;85.70;;;80.07;;
2035;SDS011;23642;42.658;23.350;2023-04-03T04:01:52;88.80;;;82.87;;
2035;SDS011;23642;42.658;23.350;2023-04-03T04:04:18;89.00;;;82.87;;
2035;SDS011;23642;42.658;23.350;2023-04-03T04:06:46;91.07;;;84.77;;
2035;SDS011;23642;42.658;23.350;2023-04-03T04:09:13;89.17;;;83.40;;
2035;SDS011;23642;42.658;23.350;2023-04-03T04:11:40;92.50;;;85.80;;
2035;SDS011;23642;42.658;23.350;2023-04-03T04:14:07;92.33;;;86.03;;
2035;SDS011;23642;42.658;23.350;2023-04-03T04:16:35;91.70;;;85.60;;
2035;SDS011;23642;42.658;23.350;2023-04-03T04:19:02;92.20;;;85.00;;
2035;SDS011;23642;42.658;23.350;2023-04-03T04:21:29;89.97;;;83.43;;
2035;SDS011;23642;42.658;23.350;2023-04-03T04:23:57;91.30;;;85.20;;
2035;SDS011;23642;42.658;23.350;2023-04-03T04:26:23;93.37;;;86.37;;
2035;SDS011;23642;42.658;23.350;2023-04-03T04:28:51;88.37;;;82.27;;
2035;SDS011;23642;42.658;23.350;2023-04-03T04:31:17;94.87;;;87.67;;
2035;SDS011;23642;42.658;23.350;2023-04-03T04:33:44;95.77;;;88.83;;
2035;SDS011;23642;42.658;23.350;2023-04-03T04:36:11;98.73;;;90.73;;
2035;SDS011;23642;42.658;23.350;2023-04-03T04:38:39;100.27;;;92.60;;
2035;SDS011;23642;42.658;23.350;2023-04-03T04:41:08;99.13;;;91.80;;
2035;SDS011;23642;42.658;23.350;2023-04-03T04:43:36;100.70;;;92.23;;
2035;SDS011;23642;42.658;23.350;2023-04-03T04:46:03;99.90;;;91.40;;
2035;SDS011;23642;42.658;23.350;2023-04-03T04:48:32;96.43;;;89.53;;
2035;SDS011;23642;42.658;23.350;2023-04-03T04:50:59;104.63;;;96.00;;
2035;SDS011;23642;42.658;23.350;2023-04-03T04:53:29;102.47;;;94.60;;
2035;SDS011;23642;42.658;23.350;2023-04-03T04:55:56;103.53;;;95.33;;
2035;SDS011;23642;42.658;23.350;2023-04-03T04:58:26;107.00;;;98.43;;
2035;SDS011;23642;42.658;23.350;2023-04-03T05:00:57;104.90;;;96.50;;
2035;SDS011;23642;42.658;23.350;2023-04-03T05:03:25;99.10;;;91.63;;
2035;SDS011;23642;42.658;23.350;2023-04-03T05:05:52;102.27;;;94.70;;
2035;SDS011;23642;42.658;23.350;2023-04-03T05:08:18;102.13;;;94.23;;
2035;SDS011;23642;42.658;23.350;2023-04-03T05:10:46;100.37;;;92.87;;
2035;SDS011;23642;42.658;23.350;2023-04-03T05:13:12;105.50;;;96.50;;
2035;SDS011;23642;42.658;23.350;2023-04-03T05:15:41;101.70;;;93.37;;
2035;SDS011;23642;42.658;23.350;2023-04-03T05:18:08;103.57;;;94.63;;
2035;SDS011;23642;42.658;23.350;2023-04-03T05:20:35;100.87;;;93.50;;
2035;SDS011;23642;42.658;23.350;2023-04-03T05:23:05;101.50;;;93.77;;
2035;SDS011;23642;42.658;23.350;2023-04-03T05:25:33;104.73;;;96.53;;
2035;SDS011;23642;42.658;23.350;2023-04-03T05:28:00;104.20;;;96.60;;
2035;SDS011;23642;42.658;23.350;2023-04-03T05:30:27;101.53;;;94.00;;
2035;SDS011;23642;42.658;23.350;2023-04-03T05:32:55;103.73;;;95.53;;
2035;SDS011;23642;42.658;23.350;2023-04-03T05:35:22;103.97;;;95.83;;
2035;SDS011;23642;42.658;23.350;2023-04-03T05:37:49;106.00;;;97.23;;
2035;SDS011;23642;42.658;23.350;2023-04-03T05:40:16;109.07;;;99.63;;
2035;SDS011;23642;42.658;23.350;2023-04-03T05:42:43;103.93;;;95.90;;
2035;SDS011;23642;42.658;23.350;2023-04-03T05:45:10;107.37;;;98.40;;
2035;SDS011;23642;42.658;23.350;2023-04-03T05:47:37;106.27;;;97.83;;
2035;SDS011;23642;42.658;23.350;2023-04-03T05:50:06;112.30;;;102.80;;
2035;SDS011;23642;42.658;23.350;2023-04-03T05:52:37;110.90;;;102.20;;
2035;SDS011;23642;42.658;23.350;2023-04-03T05:55:07;114.53;;;105.27;;
2035;SDS011;23642;42.658;23.350;2023-04-03T05:57:34;111.37;;;103.10;;
2035;SDS011;23642;42.658;23.350;2023-04-03T06:00:01;112.23;;;103.57;;
2035;SDS011;23642;42.658;23.350;2023-04-03T06:02:31;113.90;;;105.37;;
2035;SDS011;23642;42.658;23.350;2023-04-03T06:04:58;116.40;;;108.23;;
2035;SDS011;23642;42.658;23.350;2023-04-03T06:07:26;119.17;;;109.87;;
2035;SDS011;23642;42.658;23.350;2023-04-03T06:09:54;117.50;;;108.30;;
2035;SDS011;23642;42.658;23.350;2023-04-03T06:12:22;116.30;;;107.90;;
2035;SDS011;23642;42.658;23.350;2023-04-03T06:14:49;111.93;;;103.47;;
2035;SDS011;23642;42.658;23.350;2023-04-03T06:17:16;111.07;;;102.13;;
2035;SDS011;23642;42.658;23.350;2023-04-03T06:19:43;111.30;;;102.73;;
2035;SDS011;23642;42.658;23.350;2023-04-03T06:22:13;110.53;;;102.73;;
2035;SDS011;23642;42.658;23.350;2023-04-03T06:24:42;114.30;;;105.50;;
2035;SDS011;23642;42.658;23.350;2023-04-03T06:27:09;112.60;;;104.40;;
2035;SDS011;23642;42.658;23.350;2023-04-03T06:29:37;116.27;;;106.03;;
2035;SDS011;23642;42.658;23.350;2023-04-03T06:32:04;116.57;;;106.30;;
2035;SDS011;23642;42.658;23.350;2023-04-03T06:34:32;115.03;;;106.73;;
2035;SDS011;23642;42.658;23.350;2023-04-03T06:37:00;115.30;;;106.10;;
2035;SDS011;23642;42.658;23.350;2023-04-03T06:39:27;113.10;;;104.87;;
2035;SDS011;23642;42.658;23.350;2023-04-03T06:41:59;118.40;;;109.20;;
2035;SDS011;23642;42.658;23.350;2023-04-03T06:44:25;117.80;;;109.13;;
2035;SDS011;23642;42.658;23.350;2023-04-03T06:46:52;117.93;;;108.90;;
2035;SDS011;23642;42.658;23.350;2023-04-03T06:49:19;113.53;;;104.53;;
2035;SDS011;23642;42.658;23.350;2023-04-03T06:51:46;115.93;;;107.60;;
2035;SDS011;23642;42.658;23.350;2023-04-03T06:54:13;114.03;;;105.17;;
2035;SDS011;23642;42.658;23.350;2023-04-03T06:56:40;115.70;;;107.40;;
2035;SDS011;23642;42.658;23.350;2023-04-03T06:59:09;117.87;;;108.67;;
2035;SDS011;23642;42.658;23.350;2023-04-03T07:01:36;116.97;;;108.77;;
2035;SDS011;23642;42.658;23.350;2023-04-03T07:04:03;113.00;;;105.03;;
2035;SDS011;23642;42.658;23.350;2023-04-03T07:06:30;115.10;;;106.40;;
2035;SDS011;23642;42.658;23.350;2023-04-03T07:08:59;116.50;;;108.00;;
2035;SDS011;23642;42.658;23.350;2023-04-03T07:11:27;115.30;;;107.33;;
2035;SDS011;23642;42.658;23.350;2023-04-03T07:13:57;115.47;;;107.40;;
2035;SDS011;23642;42.658;23.350;2023-04-03T07:16:26;120.03;;;111.73;;
2035;SDS011;23642;42.658;23.350;2023-04-03T07:18:53;116.97;;;108.80;;
2035;SDS011;23642;42.658;23.350;2023-04-03T07:21:22;118.30;;;110.00;;
2035;SDS011;23642;42.658;23.350;2023-04-03T07:23:50;116.83;;;108.50;;
2035;SDS011;23642;42.658;23.350;2023-04-03T07:26:20;120.60;;;112.60;;
2035;SDS011;23642;42.658;23.350;2023-04-03T07:28:47;116.63;;;109.13;;
2035;SDS011;23642;42.658;23.350;2023-04-03T07:31:15;118.97;;;111.30;;
2035;SDS011;23642;42.658;23.350;2023-04-03T07:33:47;119.47;;;110.97;;
2035;SDS011;23642;42.658;23.350;2023-04-03T07:36:15;122.53;;;112.40;;
2035;SDS011;23642;42.658;23.350;2023-04-03T07:38:43;122.37;;;112.30;;
2035;SDS011;23642;42.658;23.350;2023-04-03T07:41:11;120.50;;;112.30;;
2035;SDS011;23642;42.658;23.350;2023-04-03T07:43:40;116.97;;;108.97;;
2035;SDS011;23642;42.658;23.350;2023-04-03T07:46:07;116.73;;;108.23;;
2035;SDS011;23642;42.658;23.350;2023-04-03T07:48:34;115.20;;;107.37;;
2035;SDS011;23642;42.658;23.350;2023-04-03T07:51:03;120.20;;;112.20;;
2035;SDS011;23642;42.658;23.350;2023-04-03T07:53:31;120.97;;;111.80;;
2035;SDS011;23642;42.658;23.350;2023-04-03T07:55:59;121.47;;;112.47;;
2035;SDS011;23642;42.658;23.350;2023-04-03T07:58:29;119.73;;;110.73;;
2035;SDS011;23642;42.658;23.350;2023-04-03T08:00:59;127.50;;;117.80;;
2035;SDS011;23642;42.658;23.350;2023-04-03T08:03:31;130.47;;;120.97;;
2035;SDS011;23642;42.658;23.350;2023-04-03T08:06:04;128.90;;;117.10;;
2035;SDS011;23642;42.658;23.350;2023-04-03T08:08:33;127.57;;;118.03;;
2035;SDS011;23642;42.658;23.350;2023-04-03T08:11:00;129.87;;;119.93;;
2035;SDS011;23642;42.658;23.350;2023-04-03T08:13:30;123.43;;;114.10;;
2035;SDS011;23642;42.658;23.350;2023-04-03T08:16:06;126.90;;;117.30;;
2035;SDS011;23642;42.658;23.350;2023-04-03T08:18:36;137.63;;;126.57;;
2035;SDS011;23642;42.658;23.350;2023-04-03T08:21:12;130.83;;;121.07;;
2035;SDS011;23642;42.658;23.350;2023-04-03T08:23:43;125.10;;;115.83;;
2035;SDS011;23642;42.658;23.350;2023-04-03T08:26:10;133.03;;;123.60;;
2035;SDS011;23642;42.658;23.350;2023-04-03T08:28:38;130.90;;;121.47;;
2035;SDS011;23642;42.658;23.350;2023-04-03T08:31:06;127.30;;;118.03;;
2035;SDS011;23642;42.658;23.350;2023-04-03T08:33:37;127.37;;;118.20;;
2035;SDS011;23642;42.658;23.350;2023-04-03T08:36:05;122.80;;;114.00;;
2035;SDS011;23642;42.658;23.350;2023-04-03T08:38:36;124.70;;;114.17;;
2035;SDS011;23642;42.658;23.350;2023-04-03T08:41:05;128.40;;;118.67;;
2035;SDS011;23642;42.658;23.350;2023-04-03T08:43:40;125.10;;;116.43;;
2035;SDS011;23642;42.658;23.350;2023-04-03T08:46:26;128.07;;;118.37;;
2035;SDS011;23642;42.658;23.350;2023-04-03T08:49:06;122.77;;;113.40;;
2035;SDS011;23642;42.658;23.350;2023-04-03T08:51:41;119.83;;;110.27;;
2035;SDS011;23642;42.658;23.350;2023-04-03T08:54:17;119.90;;;111.43;;
2035;SDS011;23642;42.658;23.350;2023-04-03T08:56:53;118.57;;;110.23;;
2035;SDS011;23642;42.658;23.350;2023-04-03T08:59:25;117.40;;;109.13;;
2035;SDS011;23642;42.658;23.350;2023-04-03T09:01:56;121.20;;;110.47;;
2035;SDS011;23642;42.658;23.350;2023-04-03T09:04:27;121.93;;;113.03;;
2035;SDS011;23642;42.658;23.350;2023-04-03T09:06:59;122.93;;;113.87;;
2035;SDS011;23642;42.658;23.350;2023-04-03T09:09:37;121.23;;;112.43;;
2035;SDS011;23642;42.658;23.350;2023-04-03T09:12:12;121.73;;;112.90;;
2035;SDS011;23642;42.658;23.350;2023-04-03T09:14:46;117.60;;;109.13;;
2035;SDS011;23642;42.658;23.350;2023-04-03T09:17:31;116.27;;;107.77;;
2035;SDS011;23642;42.658;23.350;2023-04-03T09:20:11;114.87;;;107.20;;
2035;SDS011;23642;42.658;23.350;2023-04-03T09:22:46;113.03;;;104.90;;
2035;SDS011;23642;42.658;23.350;2023-04-03T09:25:16;109.87;;;102.70;;
2035;SDS011;23642;42.658;23.350;2023-04-03T09:27:47;107.07;;;99.57;;
2035;SDS011;23642;42.658;23.350;2023-04-03T09:30:18;108.13;;;100.73;;
2035;SDS011;23642;42.658;23.350;2023-04-03T09:32:46;110.87;;;103.20;;
2035;SDS011;23642;42.658;23.350;2023-04-03T09:35:18;108.90;;;101.50;;
2035;SDS011;23642;42.658;23.350;2023-04-03T09:37:49;107.97;;;100.70;;
2035;SDS011;23642;42.658;23.350;2023-04-03T09:40:34;107.83;;;100.40;;
2035;SDS011;23642;42.658;23.350;2023-04-03T09:45:52;105.30;;;98.10;;
2035;SDS011;23642;42.658;23.350;2023-04-03T09:48:20;102.67;;;96.20;;
2035;SDS011;23642;42.658;23.350;2023-04-03T09:50:58;102.07;;;95.57;;
2035;SDS011;23642;42.658;23.350;2023-04-03T09:53:30;102.23;;;95.43;;
2035;SDS011;23642;42.658;23.350;2023-04-03T09:56:04;102.93;;;95.60;;
2035;SDS011;23642;42.658;23.350;2023-04-03T09:58:46;103.07;;;96.47;;
2035;SDS011;23642;42.658;23.350;2023-04-03T10:01:21;105.20;;;97.73;;
2035;SDS011;23642;42.658;23.350;2023-04-03T10:04:02;102.00;;;95.60;;
2035;SDS011;23642;42.658;23.350;2023-04-03T10:06:31;101.20;;;94.70;;
2035;SDS011;23642;42.658;23.350;2023-04-03T10:09:03;100.17;;;93.87;;
2035;SDS011;23642;42.658;23.350;2023-04-03T10:11:33;98.83;;;92.33;;
2035;SDS011;23642;42.658;23.350;2023-04-03T10:14:00;98.73;;;92.53;;
2035;SDS011;23642;42.658;23.350;2023-04-03T10:16:32;102.77;;;95.87;;
2035;SDS011;23642;42.658;23.350;2023-04-03T10:19:07;104.77;;;97.43;;
2035;SDS011;23642;42.658;23.350;2023-04-03T10:21:44;101.83;;;94.73;;
2035;SDS011;23642;42.658;23.350;2023-04-03T10:24:16;102.23;;;95.80;;
2035;SDS011;23642;42.658;23.350;2023-04-03T10:26:52;102.00;;;94.90;;
2035;SDS011;23642;42.658;23.350;2023-04-03T10:29:38;102.50;;;95.53;;
2035;SDS011;23642;42.658;23.350;2023-04-03T10:32:22;99.50;;;92.90;;
2035;SDS011;23642;42.658;23.350;2023-04-03T10:35:15;98.90;;;92.70;;
2035;SDS011;23642;42.658;23.350;2023-04-03T10:37:50;99.57;;;93.17;;
2035;SDS011;23642;42.658;23.350;2023-04-03T10:40:29;100.27;;;93.97;;
2035;SDS011;23642;42.658;23.350;2023-04-03T10:43:04;99.30;;;93.10;;
2035;SDS011;23642;42.658;23.350;2023-04-03T10:48:25;100.27;;;93.83;;
2035;SDS011;23642;42.658;23.350;2023-04-03T10:51:05;100.00;;;93.60;;
2035;SDS011;23642;42.658;23.350;2023-04-03T10:53:45;98.93;;;92.83;;
2035;SDS011;23642;42.658;23.350;2023-04-03T10:56:19;99.87;;;93.20;;
2035;SDS011;23642;42.658;23.350;2023-04-03T10:58:56;98.13;;;91.50;;
2035;SDS011;23642;42.658;23.350;2023-04-03T11:01:30;100.97;;;94.77;;
2035;SDS011;23642;42.658;23.350;2023-04-03T11:04:00;99.80;;;93.70;;
2035;SDS011;23642;42.658;23.350;2023-04-03T11:06:34;99.97;;;93.97;;
2035;SDS011;23642;42.658;23.350;2023-04-03T11:09:07;100.83;;;94.53;;
2035;SDS011;23642;42.658;23.350;2023-04-03T11:11:46;100.30;;;93.90;;
2035;SDS011;23642;42.658;23.350;2023-04-03T11:14:21;101.80;;;95.33;;
2035;SDS011;23642;42.658;23.350;2023-04-03T11:17:05;109.50;;;102.50;;
2035;SDS011;23642;42.658;23.350;2023-04-03T11:19:44;107.90;;;100.93;;
2035;SDS011;23642;42.658;23.350;2023-04-03T11:22:18;110.63;;;103.67;;
2035;SDS011;23642;42.658;23.350;2023-04-03T11:24:55;106.17;;;99.50;;
2035;SDS011;23642;42.658;23.350;2023-04-03T11:27:30;107.40;;;100.70;;
2035;SDS011;23642;42.658;23.350;2023-04-03T11:30:07;103.93;;;97.37;;
2035;SDS011;23642;42.658;23.350;2023-04-03T11:32:52;108.50;;;101.70;;
2035;SDS011;23642;42.658;23.350;2023-04-03T11:35:28;106.27;;;99.57;;
2035;SDS011;23642;42.658;23.350;2023-04-03T11:37:56;105.53;;;98.80;;
2035;SDS011;23642;42.658;23.350;2023-04-03T11:40:28;101.77;;;95.37;;
2035;SDS011;23642;42.658;23.350;2023-04-03T11:43:03;103.80;;;97.27;;
2035;SDS011;23642;42.658;23.350;2023-04-03T11:45:37;102.93;;;96.20;;
2035;SDS011;23642;42.658;23.350;2023-04-03T12:03:29;95.23;;;89.10;;
2035;SDS011;23642;42.658;23.350;2023-04-03T12:09:29;94.07;;;88.17;;
2035;SDS011;23642;42.658;23.350;2023-04-03T12:11:59;94.37;;;88.27;;
2035;SDS011;23642;42.658;23.350;2023-04-03T12:14:50;91.53;;;85.83;;
2035;SDS011;23642;42.658;23.350;2023-04-03T12:17:22;90.73;;;84.93;;
2035;SDS011;23642;42.658;23.350;2023-04-03T12:19:52;90.10;;;84.07;;
2035;SDS011;23642;42.658;23.350;2023-04-03T12:22:20;85.17;;;79.87;;
2035;SDS011;23642;42.658;23.350;2023-04-03T12:24:50;84.90;;;79.37;;
2035;SDS011;23642;42.658;23.350;2023-04-03T12:27:25;84.30;;;79.00;;
2035;SDS011;23642;42.658;23.350;2023-04-03T12:30:00;84.80;;;79.50;;
2035;SDS011;23642;42.658;23.350;2023-04-03T12:35:26;81.80;;;76.60;;
2035;SDS011;23642;42.658;23.350;2023-04-03T12:41:12;81.57;;;76.17;;
2035;SDS011;23642;42.658;23.350;2023-04-03T12:43:49;81.60;;;76.40;;
2035;SDS011;23642;42.658;23.350;2023-04-03T12:46:26;80.60;;;75.40;;
2035;SDS011;23642;42.658;23.350;2023-04-03T12:49:01;79.70;;;74.30;;
2035;SDS011;23642;42.658;23.350;2023-04-03T12:51:33;79.67;;;74.57;;
2035;SDS011;23642;42.658;23.350;2023-04-03T12:54:04;80.83;;;75.53;;
2035;SDS011;23642;42.658;23.350;2023-04-03T12:56:41;79.80;;;74.70;;
2035;SDS011;23642;42.658;23.350;2023-04-03T12:59:15;79.13;;;73.83;;
2035;SDS011;23642;42.658;23.350;2023-04-03T13:01:53;82.40;;;76.63;;
2035;SDS011;23642;42.658;23.350;2023-04-03T13:04:22;78.27;;;73.27;;
2035;SDS011;23642;42.658;23.350;2023-04-03T13:06:50;81.83;;;76.63;;
2035;SDS011;23642;42.658;23.350;2023-04-03T13:09:18;81.00;;;75.83;;
2035;SDS011;23642;42.658;23.350;2023-04-03T13:11:51;78.13;;;72.93;;
2035;SDS011;23642;42.658;23.350;2023-04-03T13:14:24;79.30;;;74.13;;
2035;SDS011;23642;42.658;23.350;2023-04-03T13:16:56;80.77;;;75.63;;
2035;SDS011;23642;42.658;23.350;2023-04-03T13:19:27;79.03;;;74.23;;
2035;SDS011;23642;42.658;23.350;2023-04-03T13:22:04;77.50;;;72.70;;
2035;SDS011;23642;42.658;23.350;2023-04-03T13:24:35;78.40;;;73.50;;
2035;SDS011;23642;42.658;23.350;2023-04-03T13:27:06;78.53;;;73.43;;
2035;SDS011;23642;42.658;23.350;2023-04-03T13:29:34;79.00;;;73.90;;
2035;SDS011;23642;42.658;23.350;2023-04-03T13:32:04;80.00;;;74.80;;
2035;SDS011;23642;42.658;23.350;2023-04-03T13:34:37;78.37;;;73.37;;
2035;SDS011;23642;42.658;23.350;2023-04-03T13:37:06;79.80;;;74.80;;
2035;SDS011;23642;42.658;23.350;2023-04-03T13:39:34;80.10;;;74.93;;
2035;SDS011;23642;42.658;23.350;2023-04-03T13:42:02;77.57;;;72.50;;
2035;SDS011;23642;42.658;23.350;2023-04-03T13:44:43;77.00;;;72.03;;
2035;SDS011;23642;42.658;23.350;2023-04-03T13:47:21;80.20;;;75.00;;
2035;SDS011;23642;42.658;23.350;2023-04-03T13:50:01;79.00;;;73.90;;
2035;SDS011;23642;42.658;23.350;2023-04-03T13:52:42;80.13;;;74.73;;
2035;SDS011;23642;42.658;23.350;2023-04-03T13:55:17;76.63;;;71.83;;
2035;SDS011;23642;42.658;23.350;2023-04-03T13:57:54;72.33;;;67.83;;
2035;SDS011;23642;42.658;23.350;2023-04-03T14:00:29;75.40;;;70.53;;
2035;SDS011;23642;42.658;23.350;2023-04-03T14:03:02;72.93;;;68.13;;
2035;SDS011;23642;42.658;23.350;2023-04-03T14:05:39;72.90;;;68.40;;
2035;SDS011;23642;42.658;23.350;2023-04-03T14:08:08;75.53;;;70.83;;
2035;SDS011;23642;42.658;23.350;2023-04-03T14:10:37;73.97;;;69.23;;
2035;SDS011;23642;42.658;23.350;2023-04-03T14:13:05;73.13;;;68.63;;
2035;SDS011;23642;42.658;23.350;2023-04-03T14:15:34;77.10;;;72.27;;
2035;SDS011;23642;42.658;23.350;2023-04-03T14:18:03;87.13;;;79.80;;
2035;SDS011;23642;42.658;23.350;2023-04-03T14:20:29;90.80;;;81.73;;
2035;SDS011;23642;42.658;23.350;2023-04-03T14:22:58;81.10;;;75.60;;
2035;SDS011;23642;42.658;23.350;2023-04-03T14:25:25;77.80;;;72.60;;
2035;SDS011;23642;42.658;23.350;2023-04-03T14:27:55;74.30;;;69.60;;
2035;SDS011;23642;42.658;23.350;2023-04-03T14:30:23;75.17;;;70.20;;
2035;SDS011;23642;42.658;23.350;2023-04-03T14:32:52;73.83;;;69.03;;
2035;SDS011;23642;42.658;23.350;2023-04-03T14:35:19;71.63;;;67.10;;
2035;SDS011;23642;42.658;23.350;2023-04-03T14:37:49;72.70;;;68.20;;
2035;SDS011;23642;42.658;23.350;2023-04-03T14:40:19;73.53;;;69.00;;
2035;SDS011;23642;42.658;23.350;2023-04-03T14:42:50;72.60;;;68.10;;
2035;SDS011;23642;42.658;23.350;2023-04-03T14:45:20;70.00;;;65.70;;
2035;SDS011;23642;42.658;23.350;2023-04-03T14:47:49;72.03;;;67.50;;
2035;SDS011;23642;42.658;23.350;2023-04-03T14:50:18;73.27;;;68.67;;
2035;SDS011;23642;42.658;23.350;2023-04-03T14:52:48;71.30;;;66.80;;
2035;SDS011;23642;42.658;23.350;2023-04-03T14:55:19;71.83;;;67.33;;
2035;SDS011;23642;42.658;23.350;2023-04-03T14:57:49;70.70;;;66.30;;
2035;SDS011;23642;42.658;23.350;2023-04-03T15:00:17;72.37;;;67.90;;
2035;SDS011;23642;42.658;23.350;2023-04-03T15:02:45;71.70;;;67.30;;